KUKI

Details ICAO KUKI
Name UKIAH MUNI
Region United States
Timezone America/Los_Angeles (UTC-8.0)
Plans Departing 5
Arriving 5
Stats Elevation 614 ft / 187 m (AMSL)
Location 39.125957° -123.200856°
Runways 1
Magnetic Variation 13.916° E
Sunrise 2017-12-17 15:27:48 UTC / 2017-12-17 07:27:48 Local
Sunset 2017-12-18 00:53:06 UTC / 2017-12-17 16:53:06 Local
Advertisement - Login to hide

Runways

ID Width Length Bearing (true) Bearing (mag) Surface Threshold Offset Overrun Length
15 150 ft / 46 m 4,422 ft / 1,348 m 168.37° 154.45° Asphalt 0 ft / 0 m 0 ft / 0 m
33 150 ft / 46 m 4,422 ft / 1,348 m 348.37° 334.45° Asphalt 0 ft / 0 m 0 ft / 0 m

Approach Navaids

Runway Type Ident Frequency Range Bearing (true) Bearing (mag) Slope Elevation
15 Localiser IUKI 109.10 MHz 18 nm / 33 km 168.37° 154.45° - 614 ft / 187 m (AMSL)
15 DME IUKI 109.10 MHz 18 nm / 33 km - - - 608 ft / 185 m (AMSL)

Map

Weather


0- 5 10 15 20 25 30 35+ Temperature / ° C

Clouds and Precipitation
Forecast for 2017-12-18 00:00 UTC. Updated 41 minutes ago

Ground ~20,000 ft ~40,000 ft Winds

METAR

KUKI 171956Z AUTO 00000KT 10SM CLR 14/M01 A3005 RMK AO2 SLP174 T01391011

TAF

KUKI 171736Z 1718/1818 VRB05KT 6SM BR FEW250 FM172000 33005KT P6SM SCT250 FM180300 00000KT P6SM FEW250

Frequencies

Recorded 119.27 MHz ASOS
Unicom 123.00 MHz CTAF/UNICOM
Warning: Do not use this data for real-world aviation or navigation. No guarantee of current accuracy is given.